Time;durP1;ratioP1;P1;durP2;ratioP2;P2;SDS_P1;SDS_P2;PMS_P1;PMS_P2;Temp;Humidity;BMP_temperature;BMP_pressure;BME280_temperature;BME280_humidity;BME280_pressure;Samples;Min_cycle;Max_cycle;Signal;HPM_P1;HPM_P2
2022/06/08 00:02:14;;;;;;;0.10;0.10;;;19.00;77.40;;;;;;4192636;28;20196;-74
2022/06/08 00:04:36;;;;;;;0.17;0.17;;;19.00;77.50;;;;;;4193590;28;20053;-73
2022/06/08 00:06:59;;;;;;;0.00;0.00;;;19.00;78.30;;;;;;4194663;28;20040;-74
2022/06/08 00:09:21;;;;;;;0.00;0.00;;;19.00;77.40;;;;;;4210523;27;20048;-74
2022/06/08 00:11:44;;;;;;;0.00;0.00;;;19.00;77.50;;;;;;4210523;28;20513;-74
2022/06/08 00:14:06;;;;;;;0.00;0.00;;;19.00;77.40;;;;;;4209316;28;20048;-76
2022/06/08 00:16:28;;;;;;;0.00;0.00;;;18.90;77.30;;;;;;4198472;28;20440;-75
2022/06/08 00:18:50;;;;;;;0.00;0.00;;;18.90;77.50;;;;;;4193451;28;20147;-74
2022/06/08 00:21:14;;;;;;;0.00;0.00;;;18.90;77.40;;;;;;4193645;28;20487;-73
2022/06/08 00:23:37;;;;;;;0.00;0.00;;;18.90;77.50;;;;;;4193704;28;20056;-74
2022/06/08 00:25:59;;;;;;;0.00;0.00;;;18.90;77.40;;;;;;4210273;28;20490;-74
2022/06/08 00:28:23;;;;;;;0.00;0.00;;;18.90;77.40;;;;;;4208756;28;20052;-73
2022/06/08 00:30:45;;;;;;;0.00;0.00;;;18.90;78.20;;;;;;4191322;28;20037;-72
2022/06/08 00:33:07;;;;;;;0.00;0.00;;;18.90;77.40;;;;;;4191950;28;20060;-72
2022/06/08 00:35:30;;;;;;;0.08;0.08;;;18.90;77.40;;;;;;4183977;28;20070;-72
2022/06/08 00:37:53;;;;;;;0.00;0.00;;;18.80;77.40;;;;;;4194406;28;20040;-73
2022/06/08 00:40:19;;;;;;;0.15;0.15;;;18.90;77.50;;;;;;4208539;28;20406;-73
2022/06/08 00:42:42;;;;;;;0.00;0.00;;;18.80;77.50;;;;;;4208950;28;20044;-73
2022/06/08 00:45:09;;;;;;;0.00;0.00;;;18.90;77.50;;;;;;4209372;28;20059;-72
2022/06/08 00:47:35;;;;;;;0.00;0.00;;;18.80;77.40;;;;;;4176417;28;20130;-73
2022/06/08 00:50:00;;;;;;;0.10;0.10;;;18.80;77.50;;;;;;4176337;28;20052;-72
2022/06/08 00:52:22;;;;;;;0.00;0.00;;;18.80;77.50;;;;;;4176706;28;20430;-72
2022/06/08 00:54:49;;;;;;;0.00;0.00;;;18.80;77.60;;;;;;4176435;28;20059;-72
2022/06/08 00:57:16;;;;;;;0.00;0.00;;;18.80;77.50;;;;;;4174070;28;20541;-73
2022/06/08 00:59:40;;;;;;;0.00;0.00;;;18.80;77.50;;;;;;4174541;28;20452;-73
2022/06/08 01:02:04;;;;;;;1.10;1.10;;;18.80;77.50;;;;;;4190577;28;20407;-74
2022/06/08 01:04:27;;;;;;;0.00;0.00;;;18.80;77.60;;;;;;4191129;28;20040;-74
2022/06/08 01:06:54;;;;;;;0.00;0.00;;;18.80;77.50;;;;;;4191684;28;20045;-74
2022/06/08 01:09:34;;;;;;;0.00;0.00;;;18.70;77.50;;;;;;4198620;28;20058;-74
2022/06/08 01:12:08;;;;;;;0.00;0.00;;;18.80;77.60;;;;;;4191420;28;20515;-73
2022/06/08 01:14:36;;;;;;;0.15;0.15;;;18.80;77.60;;;;;;4180164;28;20170;-73
2022/06/08 01:17:06;;;;;;;0.00;0.00;;;18.80;77.60;;;;;;4174590;28;20516;-73
2022/06/08 01:19:29;;;;;;;0.00;0.00;;;18.80;77.70;;;;;;4175825;28;20829;-73
2022/06/08 01:21:56;;;;;;;0.00;0.00;;;18.70;77.60;;;;;;4174816;28;20044;-73
2022/06/08 01:24:32;;;;;;;0.28;0.10;;;18.70;77.70;;;;;;4174653;28;20049;-74
2022/06/08 01:27:15;;;;;;;0.00;0.00;;;18.70;77.70;;;;;;4160586;28;20128;-72
2022/06/08 01:29:43;;;;;;;0.00;0.00;;;18.70;77.80;;;;;;4187869;28;20072;-73
2022/06/08 01:32:16;;;;;;;0.00;0.00;;;18.70;77.70;;;;;;4191899;28;20040;-73
2022/06/08 01:34:54;;;;;;;0.08;0.08;;;18.70;77.70;;;;;;4189431;28;20048;-73
2022/06/08 01:37:29;;;;;;;0.00;0.00;;;18.70;78.60;;;;;;4209004;28;20054;-73
2022/06/08 01:40:05;;;;;;;0.00;0.00;;;18.70;78.10;;;;;;4207633;28;20508;-72
2022/06/08 01:42:42;;;;;;;0.00;0.00;;;18.70;77.80;;;;;;4207759;28;20044;-74
2022/06/08 01:45:30;;;;;;;0.00;0.00;;;18.70;77.80;;;;;;4160231;28;20052;-73
2022/06/08 01:48:14;;;;;;;0.00;0.00;;;18.70;77.80;;;;;;4175514;28;20037;-73
2022/06/08 01:50:52;;;;;;;0.00;0.00;;;18.70;77.80;;;;;;4174401;28;20403;-72
2022/06/08 01:53:30;;;;;;;0.00;0.00;;;18.70;77.80;;;;;;4173967;28;20405;-73
2022/06/08 01:56:00;;;;;;;0.00;0.00;;;18.70;77.80;;;;;;4174335;28;20456;-73
2022/06/08 01:58:29;;;;;;;0.00;0.00;;;18.60;77.70;;;;;;4190780;28;20541;-74
2022/06/08 02:00:59;;;;;;;0.00;0.00;;;18.60;78.60;;;;;;4207518;28;20380;-73
2022/06/08 02:03:26;;;;;;;0.00;0.00;;;18.60;77.80;;;;;;4207237;28;20040;-73
2022/06/08 02:05:57;;;;;;;0.00;0.00;;;18.60;77.80;;;;;;4193051;28;20036;-74
2022/06/08 02:08:32;;;;;;;0.00;0.00;;;18.60;77.90;;;;;;4204187;28;20134;-74
2022/06/08 02:11:01;;;;;;;1.05;0.95;;;18.60;77.80;;;;;;4191765;28;20052;-73
2022/06/08 02:13:29;;;;;;;0.00;0.00;;;18.60;77.80;;;;;;4189713;28;20047;-73
2022/06/08 02:15:58;;;;;;;0.00;0.00;;;18.60;77.80;;;;;;4190853;28;20048;-74
2022/06/08 02:18:25;;;;;;;0.00;0.00;;;18.60;77.80;;;;;;4190394;28;20075;-74
2022/06/08 02:20:52;;;;;;;0.00;0.00;;;18.60;77.90;;;;;;4192150;28;20044;-74
2022/06/08 02:23:20;;;;;;;0.52;0.52;;;18.60;77.80;;;;;;4193444;28;20048;-72
2022/06/08 02:25:46;;;;;;;0.00;0.00;;;18.60;77.80;;;;;;4208154;28;20125;-73
2022/06/08 02:28:15;;;;;;;0.00;0.00;;;18.50;77.80;;;;;;4190326;28;20437;-72
2022/06/08 02:30:43;;;;;;;2.60;0.77;;;18.60;77.90;;;;;;4191449;28;20383;-73
2022/06/08 02:35:56;;;;;;;0.10;0.10;;;18.50;77.80;;;;;;4203707;28;20471;-71
2022/06/08 02:38:26;;;;;;;0.00;0.00;;;18.50;77.80;;;;;;4210205;28;20051;-73
2022/06/08 02:40:53;;;;;;;0.10;0.10;;;18.50;77.80;;;;;;4179353;28;20044;-72
2022/06/08 02:43:21;;;;;;;0.00;0.00;;;18.50;77.70;;;;;;4192871;28;20068;-71
2022/06/08 02:45:45;;;;;;;0.03;0.03;;;18.50;77.70;;;;;;4193606;28;20106;-72
2022/06/08 02:48:09;;;;;;;0.00;0.00;;;18.50;77.80;;;;;;4195218;28;20059;-73
2022/06/08 02:50:33;;;;;;;0.00;0.00;;;18.50;77.70;;;;;;4193798;28;20063;-73
2022/06/08 02:53:08;;;;;;;0.00;0.00;;;18.50;77.80;;;;;;4194679;28;20040;-72
2022/06/08 02:55:38;;;;;;;0.00;0.00;;;18.50;77.70;;;;;;4177182;28;20048;-72
2022/06/08 02:58:06;;;;;;;0.00;0.00;;;18.50;77.80;;;;;;4178216;28;20056;-73
2022/06/08 03:00:34;;;;;;;0.00;0.00;;;18.50;77.80;;;;;;4176986;28;20049;-72
2022/06/08 03:03:02;;;;;;;0.00;0.00;;;18.50;77.80;;;;;;4176525;28;20045;-74
2022/06/08 03:05:29;;;;;;;0.00;0.00;;;18.40;77.80;;;;;;4183770;28;20048;-74
2022/06/08 03:07:57;;;;;;;0.00;0.00;;;18.40;77.80;;;;;;4195024;28;20487;-74
2022/06/08 03:10:20;;;;;;;0.00;0.00;;;18.40;77.80;;;;;;4210306;28;20051;-74
2022/06/08 03:12:48;;;;;;;0.00;0.00;;;18.40;77.80;;;;;;4210006;28;20063;-73
2022/06/08 03:15:17;;;;;;;0.00;0.00;;;18.40;77.80;;;;;;4209763;28;20087;-73
2022/06/08 03:17:40;;;;;;;0.00;0.00;;;18.40;77.80;;;;;;4195093;28;20045;-73
2022/06/08 03:20:08;;;;;;;0.00;0.00;;;18.40;77.70;;;;;;4209976;28;20051;-73
2022/06/08 03:22:32;;;;;;;0.00;0.00;;;18.40;77.80;;;;;;4209426;28;20157;-73
2022/06/08 03:24:56;;;;;;;0.00;0.00;;;18.40;77.80;;;;;;4208371;28;20459;-72
2022/06/08 03:27:19;;;;;;;0.05;0.05;;;18.40;77.80;;;;;;4209417;28;20539;-72
2022/06/08 03:29:46;;;;;;;0.00;0.00;;;18.40;77.80;;;;;;4176604;28;20144;-72
2022/06/08 03:32:10;;;;;;;0.00;0.00;;;18.40;77.80;;;;;;4176563;28;20052;-72
2022/06/08 03:34:33;;;;;;;0.00;0.00;;;18.40;78.70;;;;;;4190249;28;20483;-71
2022/06/08 03:36:55;;;;;;;0.00;0.00;;;18.40;77.80;;;;;;4193188;28;20384;-72
2022/06/08 03:39:20;;;;;;;0.00;0.00;;;18.40;77.90;;;;;;4192897;28;20044;-72
2022/06/08 03:41:44;;;;;;;0.00;0.00;;;18.40;77.90;;;;;;4180143;28;20071;-73
2022/06/08 03:44:06;;;;;;;0.00;0.00;;;18.40;77.90;;;;;;4193747;28;20098;-72
2022/06/08 03:46:29;;;;;;;0.15;0.15;;;18.40;77.90;;;;;;4177874;28;20041;-69
2022/06/08 03:48:55;;;;;;;0.00;0.00;;;18.40;77.90;;;;;;4176665;28;20140;-70
2022/06/08 03:51:18;;;;;;;0.10;0.10;;;18.40;77.90;;;;;;4176549;28;20053;-69
2022/06/08 03:53:46;;;;;;;0.00;0.00;;;18.30;77.80;;;;;;4177409;28;20045;-69
2022/06/08 03:56:11;;;;;;;0.00;0.00;;;18.30;78.00;;;;;;4176732;28;20049;-69
2022/06/08 03:58:33;;;;;;;0.00;0.00;;;18.40;78.00;;;;;;4177105;28;20045;-70
2022/06/08 04:01:03;;;;;;;0.00;0.00;;;18.30;78.00;;;;;;4192472;28;20045;-70
2022/06/08 04:03:26;;;;;;;0.00;0.00;;;18.30;78.00;;;;;;4178732;28;20120;-69
2022/06/08 04:05:50;;;;;;;0.00;0.00;;;18.40;78.20;;;;;;4192082;28;20052;-70
2022/06/08 04:08:17;;;;;;;0.00;0.00;;;18.30;78.00;;;;;;4192405;28;20094;-70
2022/06/08 04:10:44;;;;;;;0.52;0.52;;;18.30;78.00;;;;;;4195039;28;20048;-71
2022/06/08 04:13:06;;;;;;;0.00;0.00;;;18.40;78.10;;;;;;4209151;28;20047;-72
2022/06/08 04:18:30;;;;;;;0.00;0.00;;;18.40;78.10;;;;;;4207244;28;20044;-71
2022/06/08 04:20:58;;;;;;;0.00;0.00;;;18.30;77.90;;;;;;4208804;28;20040;-71
2022/06/08 04:23:31;;;;;;;0.00;0.00;;;18.40;78.00;;;;;;4208414;28;20533;-72
2022/06/08 04:25:56;;;;;;;0.00;0.00;;;18.40;78.00;;;;;;4187684;28;20384;-72
2022/06/08 04:28:19;;;;;;;0.00;0.00;;;18.30;77.90;;;;;;4192404;28;20246;-72
2022/06/08 04:30:45;;;;;;;0.00;0.00;;;18.40;78.00;;;;;;4191642;28;20127;-71
2022/06/08 04:33:08;;;;;;;0.47;0.47;;;18.40;77.90;;;;;;4193713;28;20059;-71
2022/06/08 04:35:32;;;;;;;0.00;0.00;;;18.40;78.00;;;;;;4191962;28;20080;-71
2022/06/08 04:37:56;;;;;;;0.00;0.00;;;18.40;77.90;;;;;;4191984;28;20090;-72
2022/06/08 04:40:21;;;;;;;0.00;0.00;;;18.40;78.80;;;;;;4193298;28;20048;-72
2022/06/08 04:42:43;;;;;;;1.42;1.33;;;18.40;77.90;;;;;;4160924;28;20049;-71
2022/06/08 04:45:08;;;;;;;0.00;0.00;;;18.40;77.90;;;;;;4175356;28;20195;-70
2022/06/08 04:47:30;;;;;;;0.00;0.00;;;18.50;77.90;;;;;;4176872;28;20099;-71
2022/06/08 04:49:53;;;;;;;1.65;1.55;;;18.50;77.80;;;;;;4192195;28;20097;-71
2022/06/08 04:52:17;;;;;;;0.05;0.05;;;18.50;77.80;;;;;;4194413;28;20060;-71
2022/06/08 04:54:41;;;;;;;2.13;2.03;;;18.50;77.80;;;;;;4206377;28;20445;-71
2022/06/08 04:57:06;;;;;;;0.00;0.00;;;18.50;77.80;;;;;;4208350;28;21575;-72
2022/06/08 04:59:29;;;;;;;0.03;0.03;;;18.50;78.10;;;;;;4202830;28;20055;-71
2022/06/08 05:02:08;;;;;;;0.00;0.00;;;18.60;78.50;;;;;;4207383;28;20414;-70
2022/06/08 05:04:31;;;;;;;0.00;0.00;;;18.70;78.50;;;;;;4209559;28;20473;-71
2022/06/08 05:06:53;;;;;;;0.32;0.32;;;18.70;78.20;;;;;;4191034;28;20044;-72
2022/06/08 05:09:16;;;;;;;0.00;0.00;;;18.70;77.80;;;;;;4175792;28;20084;-70
2022/06/08 05:11:42;;;;;;;0.00;0.00;;;18.70;77.70;;;;;;4190715;28;20520;-70
2022/06/08 05:14:05;;;;;;;0.00;0.00;;;18.70;77.60;;;;;;4190644;28;20045;-71
2022/06/08 05:16:27;;;;;;;0.00;0.00;;;18.70;77.60;;;;;;4200594;28;20050;-71
2022/06/08 05:18:53;;;;;;;0.00;0.00;;;18.70;77.70;;;;;;4186947;28;20131;-71
2022/06/08 05:21:15;;;;;;;0.00;0.00;;;18.70;77.70;;;;;;4191183;28;20436;-71
2022/06/08 05:23:43;;;;;;;0.10;0.10;;;18.70;77.70;;;;;;4191260;28;20179;-70
2022/06/08 05:26:12;;;;;;;0.00;0.00;;;18.60;77.70;;;;;;4190553;28;20052;-71
2022/06/08 05:28:37;;;;;;;0.00;0.00;;;18.60;77.70;;;;;;4191271;28;20052;-70
2022/06/08 05:31:00;;;;;;;0.00;0.00;;;18.60;77.70;;;;;;4190930;28;20044;-71
2022/06/08 05:33:28;;;;;;;0.25;0.25;;;18.60;77.80;;;;;;4175524;28;20053;-71
2022/06/08 05:35:56;;;;;;;0.00;0.00;;;18.60;77.90;;;;;;4186788;28;20044;-71
2022/06/08 05:38:18;;;;;;;0.00;0.00;;;18.50;77.90;;;;;;4176984;28;20041;-71
2022/06/08 05:40:41;;;;;;;0.00;0.00;;;18.50;78.00;;;;;;4191908;28;20676;-71
2022/06/08 05:43:06;;;;;;;0.10;0.10;;;18.50;78.10;;;;;;4190244;28;20056;-70
2022/06/08 05:45:31;;;;;;;0.00;0.00;;;18.50;78.10;;;;;;4190700;28;20040;-71
2022/06/08 05:47:54;;;;;;;0.00;0.00;;;18.50;78.30;;;;;;4192043;28;20052;-71
2022/06/08 05:50:18;;;;;;;0.10;0.10;;;18.50;78.20;;;;;;4190590;28;20053;-71
2022/06/08 05:52:42;;;;;;;0.00;0.00;;;18.50;78.30;;;;;;4190476;28;20518;-71
2022/06/08 05:55:07;;;;;;;0.00;0.00;;;18.50;78.30;;;;;;4176643;28;20118;-71
2022/06/08 05:57:29;;;;;;;0.20;0.20;;;18.50;78.30;;;;;;4192437;28;20090;-70
2022/06/08 05:59:51;;;;;;;0.00;0.00;;;18.50;78.30;;;;;;4190834;28;20045;-69
2022/06/08 06:02:16;;;;;;;0.38;0.38;;;18.50;78.40;;;;;;4191425;28;20056;-71
2022/06/08 06:04:41;;;;;;;0.45;0.45;;;18.50;78.40;;;;;;4206127;28;20180;-71
2022/06/08 06:07:04;;;;;;;0.00;0.00;;;18.40;78.40;;;;;;4202057;28;20050;-69
2022/06/08 06:09:27;;;;;;;0.00;0.00;;;18.40;78.50;;;;;;4207491;28;20628;-71
2022/06/08 06:11:50;;;;;;;0.00;0.00;;;18.50;78.60;;;;;;4207116;28;20469;-71
2022/06/08 06:14:14;;;;;;;0.00;0.00;;;18.50;78.60;;;;;;4192860;28;20052;-71
2022/06/08 06:16:40;;;;;;;0.08;0.08;;;18.50;78.70;;;;;;4206154;28;20070;-71
2022/06/08 06:19:04;;;;;;;0.30;0.30;;;18.50;78.70;;;;;;4190187;28;20432;-70
2022/06/08 06:21:44;;;;;;;0.00;0.00;;;18.50;78.80;;;;;;4190386;28;20651;-71
2022/06/08 06:24:27;;;;;;;0.22;0.22;;;18.50;78.90;;;;;;4191795;28;20044;-71
2022/06/08 06:27:12;;;;;;;0.80;0.80;;;18.50;78.90;;;;;;4191275;28;20048;-72
2022/06/08 06:30:08;;;;;;;0.25;0.25;;;18.50;78.90;;;;;;4172517;28;20052;-71
2022/06/08 06:32:48;;;;;;;0.00;0.00;;;18.50;79.00;;;;;;4191168;28;20549;-70
2022/06/08 06:35:19;;;;;;;0.17;0.17;;;18.50;79.00;;;;;;4186335;28;20068;-70
2022/06/08 06:37:41;;;;;;;0.00;0.00;;;18.50;79.00;;;;;;4185938;28;20139;-71
2022/06/08 06:40:04;;;;;;;0.00;0.00;;;18.50;79.20;;;;;;4170510;28;20538;-70
2022/06/08 06:42:31;;;;;;;0.10;0.10;;;18.50;79.50;;;;;;4174704;28;20076;-70
2022/06/08 06:45:21;;;;;;;0.30;0.30;;;18.60;79.60;;;;;;4171097;28;20049;-70
2022/06/08 06:47:50;;;;;;;0.40;0.40;;;18.60;79.60;;;;;;4173806;28;20048;-71
2022/06/08 06:50:19;;;;;;;0.75;0.75;;;18.60;79.50;;;;;;4171423;28;20049;-70
2022/06/08 06:52:44;;;;;;;1.73;0.30;;;18.70;79.30;;;;;;4170417;28;20044;-71
2022/06/08 06:55:08;;;;;;;0.35;0.35;;;18.70;79.30;;;;;;4181734;28;20449;-71
2022/06/08 06:57:31;;;;;;;0.00;0.00;;;18.70;79.30;;;;;;4182373;28;20143;-71
2022/06/08 06:59:54;;;;;;;0.10;0.10;;;18.70;79.30;;;;;;4173742;28;20449;-71
2022/06/08 07:02:19;;;;;;;0.15;0.15;;;18.80;79.30;;;;;;4186608;28;20052;-72
2022/06/08 07:04:41;;;;;;;5.05;0.75;;;18.90;79.30;;;;;;4157005;28;20136;-72
2022/06/08 07:07:06;;;;;;;0.03;0.03;;;18.90;79.10;;;;;;4172885;28;21087;-72
2022/06/08 07:09:28;;;;;;;0.28;0.28;;;19.00;78.90;;;;;;4175969;28;20132;-73
2022/06/08 07:11:52;;;;;;;0.00;0.00;;;19.10;78.40;;;;;;4181834;28;20041;-74
2022/06/08 07:14:20;;;;;;;0.52;0.52;;;19.20;78.80;;;;;;4182627;28;20126;-73
2022/06/08 07:16:52;;;;;;;2.15;0.68;;;19.30;77.70;;;;;;4184475;28;20044;-71
2022/06/08 07:19:20;;;;;;;0.35;0.35;;;19.40;77.70;;;;;;4180352;28;20087;-72
2022/06/08 07:21:43;;;;;;;0.52;0.52;;;19.40;77.30;;;;;;4176810;28;20052;-71
2022/06/08 07:24:07;;;;;;;0.65;0.45;;;19.40;77.00;;;;;;4184424;28;20071;-72
2022/06/08 07:26:29;;;;;;;0.00;0.00;;;19.50;76.80;;;;;;4184354;28;21020;-72
2022/06/08 07:28:52;;;;;;;0.00;0.00;;;19.50;76.80;;;;;;4189085;28;20059;-71
2022/06/08 07:31:15;;;;;;;3.47;0.75;;;19.50;76.90;;;;;;4181663;28;20854;-72
2022/06/08 07:33:37;;;;;;;0.30;0.30;;;19.50;76.80;;;;;;4174045;28;20124;-69
2022/06/08 07:35:59;;;;;;;0.00;0.00;;;19.50;76.90;;;;;;4181095;28;20058;-72
2022/06/08 07:38:22;;;;;;;0.65;0.65;;;19.60;77.10;;;;;;4178569;28;20049;-72
2022/06/08 07:40:45;;;;;;;0.00;0.00;;;19.60;77.20;;;;;;4186896;28;20450;-71
2022/06/08 07:43:07;;;;;;;0.00;0.00;;;19.60;77.00;;;;;;4176859;28;20132;-72
2022/06/08 07:45:29;;;;;;;1.45;0.90;;;19.60;76.80;;;;;;4178797;28;20052;-71
2022/06/08 07:50:31;;;;;;;1.65;0.60;;;19.70;76.70;;;;;;4175969;28;20132;-72
2022/06/08 07:52:55;;;;;;;0.10;0.10;;;19.70;76.60;;;;;;4190451;28;20197;-72
2022/06/08 07:55:17;;;;;;;0.00;0.00;;;19.80;76.40;;;;;;4177836;28;20055;-73
2022/06/08 07:57:41;;;;;;;0.80;0.80;;;19.80;76.20;;;;;;4190757;28;20048;-72
2022/06/08 08:00:05;;;;;;;0.28;0.28;;;19.80;76.20;;;;;;4189499;28;20090;-71
2022/06/08 08:02:34;;;;;;;0.30;0.30;;;19.80;76.10;;;;;;4175698;28;20483;-71
2022/06/08 08:04:57;;;;;;;0.10;0.10;;;19.80;76.10;;;;;;4175198;28;20286;-72
2022/06/08 08:07:19;;;;;;;0.10;0.10;;;19.80;76.20;;;;;;4178800;28;20056;-73
2022/06/08 08:09:41;;;;;;;0.00;0.00;;;19.80;76.40;;;;;;4182479;28;20056;-72
2022/06/08 08:12:04;;;;;;;0.10;0.10;;;19.80;76.80;;;;;;4175206;28;20080;-71
2022/06/08 08:14:28;;;;;;;0.20;0.20;;;19.80;77.00;;;;;;4190362;28;20052;-72
2022/06/08 08:16:51;;;;;;;0.03;0.03;;;19.80;77.00;;;;;;4181558;28;20149;-72
2022/06/08 08:19:17;;;;;;;0.00;0.00;;;19.80;77.10;;;;;;4174698;28;20095;-72
2022/06/08 08:21:39;;;;;;;0.00;0.00;;;19.80;77.00;;;;;;4190325;28;20468;-73
2022/06/08 08:24:02;;;;;;;0.00;0.00;;;19.80;77.20;;;;;;4175763;28;20036;-71
2022/06/08 08:26:24;;;;;;;0.00;0.00;;;19.80;77.20;;;;;;4181938;28;20136;-70
2022/06/08 08:28:46;;;;;;;0.10;0.10;;;19.80;77.10;;;;;;4190333;28;20059;-71
2022/06/08 08:31:10;;;;;;;0.00;0.00;;;19.80;77.10;;;;;;4189883;28;20058;-70
2022/06/08 08:33:32;;;;;;;0.17;0.17;;;19.80;77.00;;;;;;4178435;28;20056;-74
2022/06/08 08:35:54;;;;;;;0.08;0.08;;;19.80;76.80;;;;;;4181602;28;20960;-73
2022/06/08 08:38:17;;;;;;;0.00;0.00;;;19.80;76.70;;;;;;4181045;28;20443;-73
2022/06/08 08:40:52;;;;;;;0.00;0.00;;;19.80;76.60;;;;;;4188721;28;20122;-73
2022/06/08 08:43:22;;;;;;;0.00;0.00;;;19.90;76.60;;;;;;4174012;28;20507;-74
2022/06/08 08:45:53;;;;;;;0.73;0.73;;;19.90;76.50;;;;;;4173883;28;20432;-73
2022/06/08 08:48:26;;;;;;;0.00;0.00;;;19.90;76.30;;;;;;4173860;28;20048;-74
2022/06/08 08:50:54;;;;;;;0.00;0.00;;;19.90;76.30;;;;;;4183167;28;20040;-73
2022/06/08 08:53:24;;;;;;;0.00;0.00;;;19.90;76.20;;;;;;4194126;28;20075;-74
2022/06/08 08:55:49;;;;;;;0.98;0.98;;;20.00;76.10;;;;;;4176239;28;20140;-72
2022/06/08 08:58:14;;;;;;;0.00;0.00;;;20.00;76.00;;;;;;4173522;28;20049;-73
2022/06/08 09:00:40;;;;;;;0.10;0.10;;;20.00;77.00;;;;;;4177249;28;20401;-73
2022/06/08 09:03:18;;;;;;;0.00;0.00;;;20.00;76.10;;;;;;4171983;28;20499;-72
2022/06/08 09:05:46;;;;;;;0.00;0.00;;;20.00;75.90;;;;;;4162097;28;20049;-71
2022/06/08 09:08:10;;;;;;;0.10;0.10;;;20.10;76.00;;;;;;4184690;28;20049;-75
2022/06/08 09:10:32;;;;;;;0.00;0.00;;;20.10;75.90;;;;;;4171954;28;20132;-73
2022/06/08 09:12:56;;;;;;;0.08;0.08;;;20.10;75.90;;;;;;4186867;28;20055;-72
2022/06/08 09:15:39;;;;;;;0.28;0.28;;;20.10;75.90;;;;;;4184993;28;20079;-72
2022/06/08 09:18:04;;;;;;;0.00;0.00;;;20.10;75.80;;;;;;4188423;28;20056;-73
2022/06/08 09:20:32;;;;;;;0.00;0.00;;;20.10;75.90;;;;;;4182720;28;20058;-72
2022/06/08 09:22:58;;;;;;;0.00;0.00;;;20.10;76.00;;;;;;4185885;28;20113;-72
2022/06/08 09:25:27;;;;;;;0.00;0.00;;;20.10;76.10;;;;;;4179783;28;20056;-72
2022/06/08 09:27:55;;;;;;;0.00;0.00;;;20.10;76.10;;;;;;4166790;28;21511;-72
2022/06/08 09:30:23;;;;;;;0.00;0.00;;;20.20;76.00;;;;;;4177465;28;20142;-72
2022/06/08 09:32:49;;;;;;;0.00;0.00;;;20.20;75.80;;;;;;4178524;28;20063;-73
2022/06/08 09:35:24;;;;;;;0.00;0.00;;;20.30;75.80;;;;;;4175477;28;20053;-72
2022/06/08 09:37:49;;;;;;;0.00;0.00;;;20.30;75.70;;;;;;4183113;28;20047;-72
2022/06/08 09:43:03;;;;;;;0.00;0.00;;;20.40;75.60;;;;;;4188732;28;20576;-72
2022/06/08 09:45:43;;;;;;;0.80;0.80;;;20.30;75.60;;;;;;4180791;28;20139;-71
2022/06/08 09:51:42;;;;;;;0.00;0.00;;;20.40;75.50;;;;;;4170168;28;20091;-72
2022/06/08 09:54:15;;;;;;;0.80;0.57;;;20.40;75.60;;;;;;4176151;28;20464;-72
2022/06/08 09:57:20;;;;;;;0.00;0.00;;;20.40;75.60;;;;;;4171445;28;20060;-72
2022/06/08 09:59:58;;;;;;;0.00;0.00;;;20.40;75.60;;;;;;4186914;28;20083;-72
2022/06/08 10:02:29;;;;;;;0.00;0.00;;;20.50;75.60;;;;;;4189401;28;20048;-72
2022/06/08 10:05:04;;;;;;;0.00;0.00;;;20.50;75.40;;;;;;4179129;28;20045;-71
2022/06/08 10:07:38;;;;;;;0.00;0.00;;;20.50;75.50;;;;;;4185743;28;20047;-70
2022/06/08 10:10:24;;;;;;;0.00;0.00;;;20.50;75.60;;;;;;4173179;28;20084;-70
2022/06/08 10:12:57;;;;;;;0.00;0.00;;;20.60;75.80;;;;;;4179483;28;20078;-71
2022/06/08 10:15:26;;;;;;;0.00;0.00;;;20.60;75.60;;;;;;4176366;28;20396;-76
2022/06/08 10:17:54;;;;;;;0.00;0.00;;;20.60;75.50;;;;;;4186513;28;20062;-75
2022/06/08 10:20:22;;;;;;;0.10;0.10;;;20.60;75.50;;;;;;4181436;28;20055;-72
2022/06/08 10:22:47;;;;;;;0.00;0.00;;;20.60;75.30;;;;;;4176406;28;20056;-73
2022/06/08 10:25:17;;;;;;;0.00;0.00;;;20.60;75.50;;;;;;4174864;28;20406;-73
2022/06/08 10:27:42;;;;;;;0.00;0.00;;;20.60;75.40;;;;;;4177807;28;20507;-74
2022/06/08 10:30:15;;;;;;;0.05;0.05;;;20.60;75.40;;;;;;4179871;28;20055;-73
2022/06/08 10:32:44;;;;;;;0.05;0.05;;;20.70;75.40;;;;;;4183228;28;20914;-73
2022/06/08 10:35:19;;;;;;;0.00;0.00;;;20.70;75.50;;;;;;4171183;28;20052;-74
2022/06/08 10:37:43;;;;;;;0.00;0.00;;;20.70;75.40;;;;;;4175565;28;20158;-74
2022/06/08 10:40:08;;;;;;;0.75;0.17;;;20.70;75.20;;;;;;4173426;28;20044;-74
2022/06/08 10:42:44;;;;;;;0.00;0.00;;;20.70;75.20;;;;;;4176027;28;20052;-73
2022/06/08 10:45:35;;;;;;;0.00;0.00;;;20.80;75.30;;;;;;4179432;28;20048;-74
2022/06/08 10:47:58;;;;;;;;;;;20.80;75.20;;;;;;4182800;28;20045;-74
2022/06/08 10:50:30;;;;;;;0.10;0.10;;;20.80;75.20;;;;;;4171297;28;21347;-74
2022/06/08 10:54:52;;;;;;;0.00;0.00;;;20.80;74.90;;;;;;4179828;28;20052;-74
2022/06/08 10:55:39;;;;;;;0.00;0.00;;;20.90;74.90;;;;;;4185099;28;20044;-74
2022/06/08 10:58:13;;;;;;;0.00;0.00;;;20.90;75.10;;;;;;4184594;28;20064;-74
2022/06/08 11:01:06;;;;;;;0.00;0.00;;;20.90;75.90;;;;;;4185980;28;20116;-74
2022/06/08 11:03:56;;;;;;;0.30;0.30;;;21.00;75.10;;;;;;4174185;28;20492;-74
2022/06/08 11:07:04;;;;;;;0.00;0.00;;;21.00;75.10;;;;;;4177449;28;20585;-74
2022/06/08 11:09:53;;;;;;;0.00;0.00;;;21.10;75.00;;;;;;4175956;28;20053;-75
2022/06/08 11:12:30;;;;;;;0.00;0.00;;;21.10;75.20;;;;;;4189851;28;20139;-74
2022/06/08 11:14:56;;;;;;;0.15;0.15;;;21.10;75.00;;;;;;4185301;28;20087;-75
2022/06/08 11:17:25;;;;;;;0.00;0.00;;;21.20;75.10;;;;;;4187748;28;20145;-74
2022/06/08 11:19:48;;;;;;;0.00;0.00;;;21.20;74.80;;;;;;4179060;28;20500;-74
2022/06/08 11:22:18;;;;;;;0.08;0.08;;;21.20;74.60;;;;;;4180190;28;20094;-74
2022/06/08 11:24:45;;;;;;;0.00;0.00;;;21.20;74.60;;;;;;4169970;28;20572;-75
2022/06/08 11:27:25;;;;;;;0.00;0.00;;;21.20;75.40;;;;;;4166191;28;20099;-74
2022/06/08 11:29:50;;;;;;;0.00;0.00;;;21.30;74.70;;;;;;4166804;28;20510;-74
2022/06/08 11:32:58;;;;;;;0.03;0.03;;;21.30;74.60;;;;;;4157330;28;20056;-74
2022/06/08 11:35:57;;;;;;;0.00;0.00;;;21.30;74.60;;;;;;4160477;28;20061;-74
2022/06/08 11:38:35;;;;;;;0.00;0.00;;;21.20;74.50;;;;;;4109853;28;20129;-75
2022/06/08 11:41:16;;;;;;;0.35;0.35;;;21.20;74.50;;;;;;4158138;28;20053;-74
2022/06/08 11:43:41;;;;;;;0.10;0.10;;;21.20;74.40;;;;;;4159307;28;20140;-75
2022/06/08 11:46:05;;;;;;;0.10;0.10;;;21.20;74.50;;;;;;4159136;28;20107;-75
2022/06/08 11:48:31;;;;;;;0.00;0.00;;;21.20;74.40;;;;;;4170230;28;20610;-74
2022/06/08 11:50:55;;;;;;;0.10;0.10;;;21.20;74.50;;;;;;4170546;28;20053;-74
2022/06/08 11:53:25;;;;;;;0.05;0.05;;;21.20;74.50;;;;;;4173160;28;20053;-75
2022/06/08 11:55:56;;;;;;;0.00;0.00;;;21.20;74.50;;;;;;4158540;28;20111;-76
2022/06/08 11:58:27;;;;;;;0.00;0.00;;;21.20;74.50;;;;;;4173841;28;20056;-76
2022/06/08 12:00:53;;;;;;;0.25;0.25;;;21.20;74.30;;;;;;4159936;28;20053;-75
2022/06/08 12:03:25;;;;;;;0.00;0.00;;;21.20;74.50;;;;;;4165879;28;20165;-75
2022/06/08 12:05:51;;;;;;;0.30;0.30;;;21.20;74.30;;;;;;4165669;28;20041;-76
2022/06/08 12:08:21;;;;;;;0.00;0.00;;;21.20;74.30;;;;;;4169827;28;20447;-74
2022/06/08 12:11:05;;;;;;;0.00;0.00;;;21.20;74.10;;;;;;4169453;28;20049;-75
2022/06/08 12:13:32;;;;;;;0.00;0.00;;;21.20;74.00;;;;;;4142407;28;20478;-77
2022/06/08 12:15:57;;;;;;;0.00;0.00;;;21.30;74.10;;;;;;4164407;28;20059;-78
2022/06/08 12:18:37;;;;;;;0.00;0.00;;;21.30;74.00;;;;;;4163692;28;20041;-77
2022/06/08 12:21:18;;;;;;;0.25;0.25;;;21.20;74.00;;;;;;4162314;28;20045;-75
2022/06/08 12:23:43;;;;;;;0.00;0.00;;;21.30;74.00;;;;;;4166077;28;20041;-75
2022/06/08 12:26:06;;;;;;;0.00;0.00;;;21.30;74.80;;;;;;4189143;28;20044;-74
2022/06/08 12:28:28;;;;;;;0.00;0.00;;;21.30;74.00;;;;;;4189505;28;20459;-75
2022/06/08 12:30:56;;;;;;;0.10;0.10;;;21.30;74.00;;;;;;4175538;28;20044;-74
2022/06/08 12:33:26;;;;;;;0.00;0.00;;;21.30;74.00;;;;;;4184297;28;20140;-72
2022/06/08 12:35:56;;;;;;;0.10;0.10;;;21.20;73.80;;;;;;4183681;28;20114;-74
2022/06/08 12:38:34;;;;;;;0.20;0.20;;;21.20;73.80;;;;;;4179723;28;20514;-75
2022/06/08 12:41:03;;;;;;;0.00;0.00;;;21.20;73.70;;;;;;4178587;28;20053;-74
2022/06/08 12:43:39;;;;;;;0.00;0.00;;;21.20;73.70;;;;;;4186064;28;20110;-73
2022/06/08 12:46:15;;;;;;;0.00;0.00;;;21.20;73.90;;;;;;4177399;28;20045;-74
2022/06/08 12:48:47;;;;;;;0.00;0.00;;;21.10;74.60;;;;;;4180776;28;20059;-75
2022/06/08 12:51:25;;;;;;;0.00;0.00;;;21.10;75.80;;;;;;4182647;28;20109;-73
2022/06/08 12:53:48;;;;;;;;;;;21.10;76.80;;;;;;4183096;28;20056;-74
2022/06/08 12:56:12;;;;;;;0.00;0.00;;;21.00;77.00;;;;;;4183291;28;20379;-75
2022/06/08 12:58:34;;;;;;;0.00;0.00;;;21.00;77.20;;;;;;4175288;28;20045;-76
2022/06/08 13:00:57;;;;;;;0.00;0.00;;;20.90;77.10;;;;;;4186906;28;20084;-75
2022/06/08 13:03:23;;;;;;;0.05;0.05;;;20.90;77.20;;;;;;4189783;28;20052;-75
2022/06/08 13:05:46;;;;;;;0.00;0.00;;;20.90;77.30;;;;;;4185203;28;20094;-76
2022/06/08 13:08:12;;;;;;;0.00;0.00;;;20.90;77.50;;;;;;4171836;28;20049;-75